Time;durP1;ratioP1;P1;durP2;ratioP2;P2;SDS_P1;SDS_P2;PMS_P1;PMS_P2;Temp;Humidity;BMP_temperature;BMP_pressure;BME280_temperature;BME280_humidity;BME280_pressure;Samples;Min_cycle;Max_cycle;Signal;HPM_P1;HPM_P2
2023/05/19 00:00:57;;;;;;;35.83;22.10;;;22.40;38.00;;;;;;4994928;28;20524;-85
2023/05/19 00:03:26;;;;;;;34.90;21.97;;;22.40;38.00;;;;;;4998888;28;20474;-84
2023/05/19 00:05:56;;;;;;;32.13;21.47;;;22.30;38.00;;;;;;4995685;28;20461;-86
2023/05/19 00:08:24;;;;;;;33.13;22.67;;;22.40;38.10;;;;;;4997663;28;20489;-87
2023/05/19 00:10:52;;;;;;;32.70;21.37;;;22.30;38.10;;;;;;4999156;28;20467;-85
2023/05/19 00:13:20;;;;;;;33.93;20.43;;;22.30;38.20;;;;;;5005063;28;20469;-85
2023/05/19 00:15:49;;;;;;;31.23;19.70;;;22.30;38.20;;;;;;4994043;28;20499;-85
2023/05/19 00:18:18;;;;;;;29.60;20.27;;;22.20;38.20;;;;;;4985264;28;20451;-86
2023/05/19 00:20:46;;;;;;;31.83;18.87;;;22.20;38.40;;;;;;4994626;28;20473;-84
2023/05/19 00:23:16;;;;;;;26.77;19.17;;;22.20;38.30;;;;;;4994153;28;20500;-84
2023/05/19 00:25:44;;;;;;;27.80;18.53;;;22.20;38.20;;;;;;4994177;28;20449;-85
2023/05/19 00:28:12;;;;;;;25.90;17.90;;;22.10;38.40;;;;;;4994443;28;20515;-85
2023/05/19 00:30:41;;;;;;;26.00;18.00;;;22.10;38.50;;;;;;4998713;28;20444;-86
2023/05/19 00:33:09;;;;;;;26.83;17.93;;;22.10;38.60;;;;;;4998089;28;20500;-85
2023/05/19 00:35:39;;;;;;;24.37;16.50;;;22.00;38.50;;;;;;4991500;28;20458;-85
2023/05/19 00:38:07;;;;;;;27.20;16.97;;;22.00;38.50;;;;;;4999147;28;20450;-85
2023/05/19 00:40:37;;;;;;;25.50;17.30;;;22.00;38.60;;;;;;4992560;28;20470;-84
2023/05/19 00:43:07;;;;;;;27.20;17.00;;;22.00;38.60;;;;;;4998422;28;20466;-86
2023/05/19 00:45:35;;;;;;;23.53;15.90;;;22.00;38.60;;;;;;4997515;28;20457;-85
2023/05/19 00:48:03;;;;;;;25.63;15.83;;;21.90;38.50;;;;;;5004495;28;20501;-83
2023/05/19 00:50:31;;;;;;;24.30;16.53;;;21.90;38.70;;;;;;4998713;28;20442;-83
2023/05/19 00:53:00;;;;;;;24.67;15.90;;;21.90;38.70;;;;;;5002532;28;20453;-83
2023/05/19 00:55:28;;;;;;;23.23;15.53;;;21.80;38.70;;;;;;5004308;28;20445;-86
2023/05/19 00:57:58;;;;;;;21.83;14.80;;;21.80;38.80;;;;;;5005609;28;20453;-83
2023/05/19 01:00:26;;;;;;;23.13;14.47;;;21.80;38.80;;;;;;5005910;28;20444;-84
2023/05/19 01:02:54;;;;;;;20.43;14.23;;;21.80;38.80;;;;;;5001198;28;20457;-86
2023/05/19 01:05:23;;;;;;;21.57;14.60;;;21.70;38.90;;;;;;5003766;28;20509;-85
2023/05/19 01:07:52;;;;;;;19.73;13.80;;;21.70;38.90;;;;;;5005897;28;20508;-84
2023/05/19 01:10:20;;;;;;;24.83;14.63;;;21.70;39.30;;;;;;5002072;28;20446;-85
2023/05/19 01:12:48;;;;;;;19.40;12.77;;;21.70;39.00;;;;;;5005738;28;20516;-85
2023/05/19 01:15:19;;;;;;;19.57;13.60;;;21.60;39.10;;;;;;5007269;28;20445;-85
2023/05/19 01:17:50;;;;;;;18.40;12.53;;;21.60;39.10;;;;;;5003002;28;20450;-84
2023/05/19 01:20:21;;;;;;;20.97;14.03;;;21.60;39.20;;;;;;5005985;28;20445;-85
2023/05/19 01:23:01;;;;;;;21.23;12.30;;;21.60;39.20;;;;;;5005587;28;20492;-85
2023/05/19 01:25:42;;;;;;;19.20;12.67;;;21.60;39.20;;;;;;4996515;28;20454;-84
2023/05/19 01:28:52;;;;;;;19.40;12.83;;;21.50;39.00;;;;;;4995540;28;20456;-84
2023/05/19 01:31:23;;;;;;;16.93;12.20;;;21.50;39.10;;;;;;4967879;28;20540;-80
2023/05/19 01:33:52;;;;;;;17.27;11.80;;;21.50;39.20;;;;;;4995567;28;20472;-81
2023/05/19 01:36:21;;;;;;;15.13;11.33;;;21.50;39.30;;;;;;5003053;28;20520;-83
2023/05/19 01:38:51;;;;;;;17.27;12.40;;;21.40;39.30;;;;;;4998208;28;20451;-83
2023/05/19 01:41:19;;;;;;;16.13;11.13;;;21.40;39.40;;;;;;5004762;28;20477;-81
2023/05/19 01:43:47;;;;;;;16.40;11.37;;;21.40;39.30;;;;;;5001974;28;20484;-81
2023/05/19 01:46:15;;;;;;;15.07;10.90;;;21.40;39.40;;;;;;4998469;28;20458;-82
2023/05/19 01:48:45;;;;;;;17.77;10.90;;;21.30;39.30;;;;;;5007009;28;20515;-82
2023/05/19 01:51:13;;;;;;;15.23;10.20;;;21.30;39.40;;;;;;5003968;28;20443;-81
2023/05/19 01:53:41;;;;;;;14.03;10.80;;;21.30;39.50;;;;;;5002150;28;20485;-81
2023/05/19 01:56:09;;;;;;;12.90;9.60;;;21.30;39.60;;;;;;5005889;28;20449;-82
2023/05/19 01:58:40;;;;;;;14.53;10.67;;;21.30;39.70;;;;;;5006948;28;20472;-82
2023/05/19 02:01:19;;;;;;;15.27;9.90;;;21.30;39.70;;;;;;5011042;28;20469;-80
2023/05/19 02:04:02;;;;;;;16.30;10.53;;;21.20;39.60;;;;;;4999842;28;20476;-82
2023/05/19 02:06:32;;;;;;;13.90;9.53;;;21.30;39.70;;;;;;5004679;28;20461;-83
2023/05/19 02:09:03;;;;;;;11.87;9.67;;;21.20;39.70;;;;;;5001847;28;20433;-80
2023/05/19 02:11:36;;;;;;;14.47;9.63;;;21.20;39.80;;;;;;5004563;28;20446;-81
2023/05/19 02:14:09;;;;;;;13.10;9.00;;;21.10;39.60;;;;;;4997042;28;20468;-82
2023/05/19 02:16:37;;;;;;;14.00;9.70;;;21.10;39.80;;;;;;5009240;28;20522;-81
2023/05/19 02:19:06;;;;;;;13.10;8.90;;;21.10;39.80;;;;;;5007963;28;20465;-81
2023/05/19 02:21:35;;;;;;;11.00;8.30;;;21.00;39.90;;;;;;5004131;28;20449;-80
2023/05/19 02:24:03;;;;;;;12.60;9.00;;;21.00;39.90;;;;;;5007917;28;20492;-82
2023/05/19 02:26:32;;;;;;;14.00;8.60;;;21.00;39.90;;;;;;5007326;28;20453;-81
2023/05/19 02:28:59;;;;;;;11.53;8.13;;;21.00;40.00;;;;;;5003225;28;20430;-80
2023/05/19 02:31:28;;;;;;;10.13;7.77;;;20.90;39.80;;;;;;5008970;28;20446;-82
2023/05/19 02:33:56;;;;;;;13.10;8.13;;;20.90;39.80;;;;;;5007870;28;20480;-81
2023/05/19 02:36:27;;;;;;;11.70;7.73;;;20.90;40.00;;;;;;5004422;28;20480;-82
2023/05/19 02:38:55;;;;;;;10.10;7.20;;;20.90;39.90;;;;;;5006471;28;20491;-82
2023/05/19 02:41:23;;;;;;;13.00;8.40;;;20.90;39.90;;;;;;5009435;28;20433;-82
2023/05/19 02:43:50;;;;;;;11.80;8.00;;;20.90;40.10;;;;;;5007948;28;20500;-84
2023/05/19 02:46:19;;;;;;;10.07;7.40;;;20.90;39.90;;;;;;5009751;28;20453;-82
2023/05/19 02:48:47;;;;;;;12.00;8.07;;;20.90;39.90;;;;;;5009904;28;20481;-82
2023/05/19 02:51:15;;;;;;;11.20;7.83;;;20.80;39.90;;;;;;5008305;28;20450;-83
2023/05/19 02:53:45;;;;;;;14.43;7.57;;;20.80;39.90;;;;;;5001003;28;20477;-84
2023/05/19 02:56:13;;;;;;;11.53;7.30;;;20.80;40.10;;;;;;5002543;28;20438;-82
2023/05/19 02:58:42;;;;;;;8.40;6.80;;;20.70;40.10;;;;;;5009193;28;20449;-82
2023/05/19 03:01:11;;;;;;;10.30;7.30;;;20.70;40.10;;;;;;5008334;28;20460;-83
2023/05/19 03:03:39;;;;;;;9.27;6.70;;;20.70;40.20;;;;;;5000512;28;20528;-85
2023/05/19 03:06:08;;;;;;;11.47;7.20;;;20.70;40.20;;;;;;5006788;28;20453;-83
2023/05/19 03:08:36;;;;;;;7.77;6.30;;;20.70;40.20;;;;;;5007157;28;20434;-82
2023/05/19 03:11:09;;;;;;;9.13;6.57;;;20.60;40.20;;;;;;5003181;28;20457;-82
2023/05/19 03:13:38;;;;;;;10.47;7.03;;;20.60;40.10;;;;;;5008651;28;20461;-84
2023/05/19 03:16:06;;;;;;;11.97;7.00;;;20.60;40.30;;;;;;5008341;28;20524;-82
2023/05/19 03:18:35;;;;;;;8.83;6.30;;;20.60;40.30;;;;;;5007358;28;20441;-83
2023/05/19 03:21:03;;;;;;;11.07;7.10;;;20.60;40.20;;;;;;4999504;28;20504;-84
2023/05/19 03:23:32;;;;;;;10.23;7.23;;;20.60;40.20;;;;;;5004962;28;20485;-84
2023/05/19 03:26:00;;;;;;;7.53;5.80;;;20.50;40.20;;;;;;5005025;28;20452;-82
2023/05/19 03:28:29;;;;;;;8.80;6.70;;;20.50;40.20;;;;;;5002309;28;20457;-81
2023/05/19 03:30:57;;;;;;;8.97;6.53;;;20.50;40.30;;;;;;5005782;28;20505;-84
2023/05/19 03:33:26;;;;;;;5.97;5.30;;;20.50;40.40;;;;;;5006023;28;20469;-81
2023/05/19 03:35:55;;;;;;;5.97;5.30;;;20.50;40.20;;;;;;5004584;28;20441;-84
2023/05/19 03:38:24;;;;;;;7.40;6.00;;;20.40;40.40;;;;;;4999790;28;20529;-82
2023/05/19 03:40:52;;;;;;;7.20;5.73;;;20.40;40.30;;;;;;5008190;28;20962;-84
2023/05/19 03:43:20;;;;;;;8.57;6.10;;;20.40;40.40;;;;;;5007073;28;20480;-84
2023/05/19 03:45:50;;;;;;;8.80;6.17;;;20.40;40.40;;;;;;5002585;28;20456;-81
2023/05/19 03:48:18;;;;;;;9.80;5.80;;;20.40;40.50;;;;;;5001075;28;20445;-81
2023/05/19 03:50:48;;;;;;;7.33;5.50;;;20.40;40.40;;;;;;5007228;28;20469;-83
2023/05/19 03:53:17;;;;;;;10.37;6.43;;;20.40;40.20;;;;;;5006001;28;20469;-83
2023/05/19 03:55:46;;;;;;;7.70;5.93;;;20.40;40.40;;;;;;5002932;28;20453;-81
2023/05/19 03:58:14;;;;;;;6.23;5.27;;;20.30;40.30;;;;;;5006136;28;20441;-82
2023/05/19 04:00:43;;;;;;;8.87;5.43;;;20.30;40.50;;;;;;5002504;28;20635;-82
2023/05/19 04:03:12;;;;;;;7.67;5.10;;;20.30;40.50;;;;;;4999302;28;20469;-82
2023/05/19 04:05:41;;;;;;;6.10;4.70;;;20.30;40.40;;;;;;5008363;28;20542;-81
2023/05/19 04:08:09;;;;;;;7.63;4.93;;;20.30;40.40;;;;;;5000305;28;20484;-81
2023/05/19 04:10:37;;;;;;;6.60;5.10;;;20.20;40.50;;;;;;5006238;28;20449;-81
2023/05/19 04:13:05;;;;;;;8.40;5.67;;;20.20;40.40;;;;;;4999172;28;20496;-83
2023/05/19 04:15:33;;;;;;;6.53;4.77;;;20.20;40.40;;;;;;5008230;28;20508;-82
2023/05/19 04:18:01;;;;;;;5.67;5.07;;;20.20;40.50;;;;;;5001119;28;20517;-81
2023/05/19 04:20:31;;;;;;;5.37;4.60;;;20.20;40.50;;;;;;5008380;28;20441;-82
2023/05/19 04:22:59;;;;;;;7.53;5.20;;;20.20;40.50;;;;;;5005802;28;20560;-83
2023/05/19 04:25:27;;;;;;;6.57;5.23;;;20.20;40.40;;;;;;5005753;28;20930;-82
2023/05/19 04:27:56;;;;;;;6.00;5.10;;;20.20;41.20;;;;;;5006654;28;20449;-84
2023/05/19 04:30:24;;;;;;;6.70;5.10;;;20.20;40.60;;;;;;5007202;28;20469;-82
2023/05/19 04:32:53;;;;;;;6.33;4.60;;;20.20;40.50;;;;;;5005760;28;20442;-82
2023/05/19 04:35:21;;;;;;;5.97;4.60;;;20.10;40.50;;;;;;5004046;28;20512;-82
2023/05/19 04:37:53;;;;;;;6.40;4.97;;;20.10;40.40;;;;;;5005894;28;20476;-81
2023/05/19 04:40:22;;;;;;;5.27;4.67;;;20.10;40.60;;;;;;4999027;28;20445;-81
2023/05/19 04:42:51;;;;;;;7.23;5.13;;;20.10;40.80;;;;;;5008946;28;20475;-81
2023/05/19 04:45:19;;;;;;;9.00;4.97;;;20.10;40.60;;;;;;5011691;28;20472;-81
2023/05/19 04:47:47;;;;;;;6.03;4.90;;;20.10;40.60;;;;;;5007421;28;20507;-81
2023/05/19 04:50:16;;;;;;;5.77;4.30;;;20.10;40.50;;;;;;4996990;28;20453;-81
2023/05/19 04:52:45;;;;;;;6.40;4.70;;;20.10;40.60;;;;;;5002879;28;20456;-81
2023/05/19 04:55:14;;;;;;;7.87;5.03;;;20.10;40.70;;;;;;5006357;28;20452;-80
2023/05/19 04:57:42;;;;;;;5.70;4.03;;;20.10;40.70;;;;;;5003620;28;20457;-82
2023/05/19 05:00:13;;;;;;;6.47;4.73;;;20.10;40.70;;;;;;5002495;28;20453;-81
2023/05/19 05:02:42;;;;;;;6.40;4.50;;;20.20;40.60;;;;;;4999877;28;20488;-82
2023/05/19 05:05:10;;;;;;;5.13;4.50;;;20.20;40.60;;;;;;4998515;28;20496;-81
2023/05/19 05:07:39;;;;;;;4.60;4.20;;;20.10;40.60;;;;;;5002707;28;20456;-81
2023/05/19 05:10:08;;;;;;;4.70;4.00;;;20.20;40.70;;;;;;4998081;28;20504;-81
2023/05/19 05:12:38;;;;;;;4.23;3.80;;;20.20;40.70;;;;;;5001960;28;20444;-80
2023/05/19 05:15:08;;;;;;;4.37;3.90;;;20.20;40.70;;;;;;4999237;28;20500;-81
2023/05/19 05:17:36;;;;;;;6.63;4.10;;;20.20;40.60;;;;;;5001050;28;20441;-83
2023/05/19 05:20:06;;;;;;;5.97;3.93;;;20.20;40.70;;;;;;5001307;28;20455;-82
2023/05/19 05:22:35;;;;;;;4.33;3.97;;;20.20;40.80;;;;;;4999649;28;20441;-81
2023/05/19 05:25:04;;;;;;;5.13;4.30;;;20.20;40.70;;;;;;4996096;28;20515;-82
2023/05/19 05:27:32;;;;;;;4.50;4.10;;;20.20;40.60;;;;;;5004089;28;20449;-81
2023/05/19 05:30:02;;;;;;;4.63;4.20;;;20.20;40.80;;;;;;5004040;28;20445;-81
2023/05/19 05:32:30;;;;;;;5.07;3.70;;;20.20;40.50;;;;;;5003117;28;20449;-81
2023/05/19 05:34:58;;;;;;;4.50;3.90;;;20.20;40.60;;;;;;4996720;28;20476;-82
2023/05/19 05:37:27;;;;;;;4.83;4.10;;;20.20;40.60;;;;;;4993702;28;20456;-82
2023/05/19 05:39:55;;;;;;;4.60;3.57;;;20.20;40.60;;;;;;4995659;28;20452;-82
2023/05/19 05:42:23;;;;;;;4.50;3.90;;;20.30;40.60;;;;;;4996418;28;20449;-81
2023/05/19 05:44:51;;;;;;;4.30;3.87;;;20.20;40.60;;;;;;5002943;28;20481;-82
2023/05/19 05:47:21;;;;;;;4.33;3.93;;;20.30;40.50;;;;;;5001538;28;20449;-83
2023/05/19 05:49:49;;;;;;;5.50;3.57;;;20.30;40.50;;;;;;5003340;28;20480;-82
2023/05/19 05:52:20;;;;;;;5.77;4.27;;;20.30;40.40;;;;;;5000916;28;20536;-82
2023/05/19 05:54:49;;;;;;;4.60;4.20;;;20.30;40.50;;;;;;5000097;28;20462;-83
2023/05/19 05:57:17;;;;;;;4.23;3.83;;;20.30;40.50;;;;;;5007586;28;20448;-85
2023/05/19 05:59:46;;;;;;;5.07;4.07;;;20.30;40.50;;;;;;5003125;28;20449;-82
2023/05/19 06:02:14;;;;;;;5.23;4.03;;;20.30;40.50;;;;;;5007288;28;20544;-82
2023/05/19 06:04:43;;;;;;;3.87;3.47;;;20.40;40.70;;;;;;5000860;28;20491;-81
2023/05/19 06:07:12;;;;;;;4.60;3.87;;;20.40;40.50;;;;;;5001489;28;20481;-81
2023/05/19 06:09:40;;;;;;;4.00;3.70;;;20.40;40.40;;;;;;4988631;28;20496;-81
2023/05/19 06:12:08;;;;;;;4.13;3.67;;;20.50;40.50;;;;;;4998671;28;20464;-81
2023/05/19 06:14:36;;;;;;;3.70;3.40;;;20.50;40.40;;;;;;5000003;28;20457;-81
2023/05/19 06:17:05;;;;;;;4.87;3.70;;;20.50;40.40;;;;;;5002383;28;20469;-82
2023/05/19 06:19:33;;;;;;;5.43;3.50;;;20.50;40.40;;;;;;5004452;28;20504;-81
2023/05/19 06:22:03;;;;;;;3.57;3.27;;;20.50;40.40;;;;;;5003572;28;20449;-81
2023/05/19 06:24:31;;;;;;;3.67;3.27;;;20.60;40.40;;;;;;5001490;28;20476;-83
2023/05/19 06:26:59;;;;;;;4.23;3.83;;;20.60;40.30;;;;;;5005833;28;20453;-83
2023/05/19 06:29:27;;;;;;;3.60;3.30;;;20.70;40.40;;;;;;5000719;28;20537;-81
2023/05/19 06:31:56;;;;;;;6.07;3.80;;;20.70;40.30;;;;;;5002055;28;20485;-82
2023/05/19 06:34:24;;;;;;;3.80;3.47;;;20.70;40.30;;;;;;4998194;28;20496;-84
2023/05/19 06:36:52;;;;;;;3.53;3.10;;;20.80;40.30;;;;;;5005284;28;20441;-84
2023/05/19 06:39:22;;;;;;;3.83;3.43;;;20.80;40.30;;;;;;5006529;28;20445;-81
2023/05/19 06:41:50;;;;;;;4.40;3.57;;;20.80;40.30;;;;;;4997046;28;20446;-80
2023/05/19 06:44:18;;;;;;;4.80;3.73;;;20.90;40.20;;;;;;5004658;28;20469;-83
2023/05/19 06:46:48;;;;;;;4.17;3.80;;;20.90;40.20;;;;;;5004391;28;20456;-84
2023/05/19 06:49:16;;;;;;;4.20;3.73;;;21.00;40.20;;;;;;4995587;28;20867;-81
2023/05/19 06:51:44;;;;;;;3.50;3.20;;;21.00;40.10;;;;;;5000102;28;20453;-82
2023/05/19 06:54:14;;;;;;;4.27;3.70;;;21.10;40.20;;;;;;5004955;28;20467;-84
2023/05/19 06:56:44;;;;;;;6.90;3.60;;;21.20;40.20;;;;;;5002398;28;20447;-83
2023/05/19 06:59:13;;;;;;;3.60;3.30;;;21.20;40.10;;;;;;5004232;28;20449;-82
2023/05/19 07:01:41;;;;;;;4.20;3.30;;;21.30;40.10;;;;;;5007603;28;20500;-81
2023/05/19 07:04:10;;;;;;;4.47;3.80;;;21.30;40.10;;;;;;5005995;28;20488;-83
2023/05/19 07:06:40;;;;;;;3.43;3.20;;;21.40;40.00;;;;;;4998094;28;20532;-81
2023/05/19 07:09:08;;;;;;;3.00;2.80;;;21.50;40.00;;;;;;5001596;28;20504;-81
2023/05/19 07:11:37;;;;;;;3.60;3.23;;;21.50;40.10;;;;;;5000958;28;20441;-81
2023/05/19 07:14:06;;;;;;;3.53;3.23;;;21.60;40.30;;;;;;5005476;28;20466;-83
2023/05/19 07:16:35;;;;;;;3.37;3.07;;;21.70;40.20;;;;;;4994935;28;20487;-81
2023/05/19 07:19:03;;;;;;;3.63;3.33;;;21.80;40.40;;;;;;5001204;28;20504;-80
2023/05/19 07:21:31;;;;;;;3.50;3.20;;;21.90;40.20;;;;;;4996551;28;20449;-80
2023/05/19 07:23:59;;;;;;;3.47;3.00;;;21.90;40.10;;;;;;4994434;28;20484;-82
2023/05/19 07:26:28;;;;;;;4.27;3.33;;;22.00;40.40;;;;;;4997932;28;20457;-81
2023/05/19 07:28:56;;;;;;;3.70;3.20;;;22.10;40.30;;;;;;4993455;28;20457;-80
2023/05/19 07:31:26;;;;;;;3.47;3.13;;;22.10;40.30;;;;;;4991899;28;20534;-81
2023/05/19 07:33:54;;;;;;;3.53;3.33;;;22.20;40.40;;;;;;4983093;28;20524;-81
2023/05/19 07:36:22;;;;;;;3.40;2.97;;;22.30;40.40;;;;;;4995401;28;20508;-80
2023/05/19 07:38:50;;;;;;;3.57;2.77;;;22.40;40.40;;;;;;4998604;28;20488;-81
2023/05/19 07:41:19;;;;;;;4.23;3.23;;;22.60;40.30;;;;;;5000207;28;20456;-80
2023/05/19 07:43:47;;;;;;;2.90;2.70;;;22.70;40.30;;;;;;4998400;28;20465;-81
2023/05/19 07:46:15;;;;;;;2.97;2.73;;;22.80;40.40;;;;;;4991909;28;20536;-81
2023/05/19 07:48:44;;;;;;;2.67;2.47;;;22.90;40.30;;;;;;4998559;28;20532;-81
2023/05/19 07:51:14;;;;;;;2.93;2.73;;;23.10;40.40;;;;;;4998269;28;20445;-83
2023/05/19 07:53:43;;;;;;;3.87;3.30;;;23.20;40.30;;;;;;4995912;28;20537;-83
2023/05/19 07:56:11;;;;;;;3.30;3.00;;;23.40;40.40;;;;;;4997866;28;20476;-83
2023/05/19 07:58:39;;;;;;;2.87;2.77;;;23.60;40.30;;;;;;4995598;28;20453;-84
2023/05/19 08:01:07;;;;;;;4.00;2.80;;;23.70;40.20;;;;;;4990468;28;20537;-84
2023/05/19 08:03:35;;;;;;;2.77;2.50;;;23.90;40.20;;;;;;4994051;28;20473;-84
2023/05/19 08:06:05;;;;;;;3.20;2.90;;;24.00;40.10;;;;;;4989364;28;20473;-84
2023/05/19 08:08:33;;;;;;;2.87;2.67;;;24.10;39.90;;;;;;4992032;28;20453;-86
2023/05/19 08:11:03;;;;;;;3.27;2.73;;;24.30;39.90;;;;;;4990273;28;20428;-86
2023/05/19 08:13:31;;;;;;;3.43;3.13;;;24.50;40.50;;;;;;4991117;28;20465;-86
2023/05/19 08:15:59;;;;;;;3.10;2.90;;;24.60;39.80;;;;;;4992007;28;20527;-86
2023/05/19 08:18:27;;;;;;;2.93;2.73;;;24.80;39.80;;;;;;4991800;28;20438;-86
2023/05/19 08:20:55;;;;;;;2.70;2.60;;;24.90;39.60;;;;;;4986157;28;20428;-87
2023/05/19 08:23:24;;;;;;;3.47;3.17;;;25.10;39.60;;;;;;4998978;28;20472;-86
2023/05/19 08:25:52;;;;;;;2.67;2.57;;;25.20;39.50;;;;;;4991802;28;20497;-86
2023/05/19 08:28:21;;;;;;;2.97;2.70;;;25.40;39.40;;;;;;4983903;28;20452;-86
2023/05/19 08:30:51;;;;;;;3.43;3.13;;;25.50;39.30;;;;;;4991757;28;20442;-86
2023/05/19 08:33:20;;;;;;;4.30;2.90;;;25.70;39.20;;;;;;4987200;28;20556;-88
2023/05/19 08:35:48;;;;;;;2.50;2.40;;;25.90;39.30;;;;;;4983953;28;20496;-87
2023/05/19 08:38:17;;;;;;;3.03;2.90;;;26.00;39.10;;;;;;4986221;28;20452;-85
2023/05/19 08:40:46;;;;;;;2.33;2.20;;;26.20;39.00;;;;;;4988196;28;20412;-87
2023/05/19 08:43:14;;;;;;;2.80;2.60;;;26.40;39.00;;;;;;4992510;28;20957;-87
2023/05/19 08:45:43;;;;;;;2.70;2.50;;;26.60;38.90;;;;;;4991250;28;20444;-87
2023/05/19 08:48:12;;;;;;;4.23;2.67;;;26.70;38.70;;;;;;4986374;28;20460;-86
2023/05/19 08:50:41;;;;;;;2.50;2.33;;;26.90;38.60;;;;;;4996390;28;20944;-87
2023/05/19 08:53:13;;;;;;;2.83;2.63;;;27.10;38.50;;;;;;5012448;28;20463;-87
2023/05/19 08:56:02;;;;;;;2.90;2.70;;;27.30;38.40;;;;;;5015000;28;20406;-89
2023/05/19 08:58:31;;;;;;;3.63;2.67;;;27.50;38.30;;;;;;5017122;28;20435;-89
2023/05/19 09:00:59;;;;;;;2.70;2.50;;;27.70;38.20;;;;;;5016356;28;20465;-86
2023/05/19 09:03:27;;;;;;;2.50;2.40;;;27.80;38.10;;;;;;5013025;28;20462;-90
2023/05/19 09:05:56;;;;;;;2.50;2.33;;;28.00;38.00;;;;;;5010612;28;20487;-91
2023/05/19 09:08:24;;;;;;;2.50;2.30;;;28.20;37.90;;;;;;5011360;28;20442;-89
2023/05/19 09:10:52;;;;;;;3.10;2.60;;;28.30;37.60;;;;;;5001521;28;20448;-86
2023/05/19 09:13:22;;;;;;;2.60;2.40;;;28.50;37.60;;;;;;4986911;28;20460;-86
2023/05/19 09:15:50;;;;;;;2.87;2.67;;;28.70;37.50;;;;;;4988095;28;20445;-88
2023/05/19 09:18:18;;;;;;;2.33;2.20;;;28.90;37.40;;;;;;4992525;28;20451;-85
2023/05/19 09:20:47;;;;;;;4.70;2.67;;;29.00;37.20;;;;;;4986623;28;20499;-85
2023/05/19 09:23:21;;;;;;;5.80;2.07;;;29.30;37.20;;;;;;4984039;28;20478;-86
2023/05/19 09:25:50;;;;;;;2.70;2.50;;;29.40;37.10;;;;;;4991799;28;20578;-85
2023/05/19 09:28:25;;;;;;;5.43;2.47;;;29.60;37.00;;;;;;4995289;28;20441;-87
2023/05/19 09:31:00;;;;;;;3.80;2.40;;;29.80;36.90;;;;;;4991320;28;20498;-86
2023/05/19 09:33:30;;;;;;;2.30;2.10;;;30.00;36.90;;;;;;4995311;28;20994;-87
2023/05/19 09:35:59;;;;;;;2.60;2.40;;;30.10;36.70;;;;;;4994120;28;20554;-86
2023/05/19 09:38:28;;;;;;;2.13;2.03;;;30.30;36.70;;;;;;4981655;28;20490;-86
2023/05/19 09:40:56;;;;;;;2.40;2.03;;;30.50;36.60;;;;;;4992108;28;20504;-88
2023/05/19 09:44:09;;;;;;;3.57;2.30;;;30.70;36.60;;;;;;4998607;28;20451;-90
2023/05/19 09:46:49;;;;;;;3.43;2.70;;;30.90;36.40;;;;;;4990540;28;20952;-87
2023/05/19 09:49:21;;;;;;;2.40;2.20;;;31.10;36.20;;;;;;4994754;28;20448;-88
2023/05/19 09:51:55;;;;;;;2.50;2.30;;;31.20;36.00;;;;;;4990212;28;20458;-88
2023/05/19 09:54:28;;;;;;;2.13;2.00;;;31.40;36.00;;;;;;4993057;28;20494;-87
2023/05/19 09:57:00;;;;;;;2.20;2.10;;;31.60;35.90;;;;;;4991796;28;20457;-87
2023/05/19 09:59:30;;;;;;;2.10;2.00;;;31.80;35.80;;;;;;4986248;28;20449;-88
2023/05/19 10:02:01;;;;;;;2.10;1.90;;;32.00;35.70;;;;;;4986392;28;20461;-87
2023/05/19 10:04:30;;;;;;;2.27;2.17;;;32.10;35.60;;;;;;4986831;28;20465;-87
2023/05/19 10:06:59;;;;;;;2.63;2.43;;;32.30;35.40;;;;;;4994332;28;20469;-89
2023/05/19 10:09:28;;;;;;;2.87;2.67;;;32.50;35.30;;;;;;4986551;28;21269;-88
2023/05/19 10:11:57;;;;;;;2.00;1.90;;;32.70;35.20;;;;;;4988414;28;20461;-86
2023/05/19 10:14:36;;;;;;;2.77;2.67;;;32.70;34.70;;;;;;4993881;28;20473;-87
2023/05/19 10:17:04;;;;;;;2.40;2.20;;;32.70;34.80;;;;;;4992178;28;20419;-85
2023/05/19 10:19:33;;;;;;;2.70;2.60;;;32.70;34.90;;;;;;4999239;28;20445;-85
2023/05/19 10:22:03;;;;;;;2.37;2.17;;;32.90;35.00;;;;;;4990111;28;20529;-86
2023/05/19 10:24:31;;;;;;;3.33;2.10;;;33.10;34.80;;;;;;4991109;28;20460;-86
2023/05/19 10:30:50;;;;;;;4.30;2.17;;;33.30;34.40;;;;;;4971821;28;20499;-85
2023/05/19 10:33:19;;;;;;;2.73;2.30;;;33.50;34.30;;;;;;4982777;28;20544;-84
2023/05/19 10:36:10;;;;;;;3.80;2.67;;;33.50;33.90;;;;;;4994031;28;20442;-83
2023/05/19 10:38:42;;;;;;;3.00;2.80;;;33.60;34.00;;;;;;4989861;28;20445;-83
2023/05/19 10:41:14;;;;;;;3.47;2.67;;;33.60;34.10;;;;;;4996947;28;20450;-83
2023/05/19 10:43:59;;;;;;;4.30;2.60;;;33.80;34.10;;;;;;4998019;28;20515;-82
2023/05/19 10:46:29;;;;;;;7.20;5.90;;;33.70;30.00;;;;;;4998473;28;20465;-82
2023/05/19 10:48:57;;;;;;;4.87;3.50;;;32.60;29.50;;;;;;4997137;28;20449;-83
2023/05/19 10:51:30;;;;;;;4.23;2.10;;;31.00;28.40;;;;;;5000365;28;20968;-83
2023/05/19 10:53:58;;;;;;;6.53;2.20;;;29.80;27.60;;;;;;4999963;28;20465;-84
2023/05/19 10:56:31;;;;;;;3.30;2.43;;;28.80;27.70;;;;;;4997477;28;20465;-85
2023/05/19 10:58:59;;;;;;;7.40;2.10;;;28.20;28.80;;;;;;4994958;28;20449;-81
2023/05/19 11:01:33;;;;;;;2.60;1.83;;;28.70;29.60;;;;;;4994301;28;20465;-83
2023/05/19 11:04:05;;;;;;;5.00;3.13;;;29.30;29.30;;;;;;4997346;28;20535;-81
2023/05/19 11:06:34;;;;;;;5.63;2.20;;;29.80;29.10;;;;;;5002330;28;20469;-80
2023/05/19 11:09:10;;;;;;;7.23;3.03;;;30.00;29.30;;;;;;5002979;28;20453;-82
2023/05/19 11:11:48;;;;;;;9.90;2.77;;;30.20;29.80;;;;;;4992073;28;20443;-82
2023/05/19 11:14:17;;;;;;;3.43;2.00;;;30.30;29.10;;;;;;4994684;28;20491;-82
2023/05/19 11:16:48;;;;;;;11.77;3.73;;;30.50;29.50;;;;;;4994236;28;20449;-82
2023/05/19 11:19:20;;;;;;;7.27;2.70;;;30.60;29.50;;;;;;4995170;28;20460;-83
2023/05/19 11:21:49;;;;;;;6.00;3.00;;;30.70;29.50;;;;;;4996008;28;20469;-82
2023/05/19 11:24:36;;;;;;;13.50;3.10;;;30.70;29.70;;;;;;4997924;28;20555;-83
2023/05/19 11:27:18;;;;;;;9.53;2.83;;;30.90;29.60;;;;;;5000551;28;20537;-82
2023/05/19 11:29:47;;;;;;;10.10;2.90;;;31.00;29.60;;;;;;4998090;28;20453;-84
2023/05/19 11:32:16;;;;;;;13.73;2.80;;;31.10;29.50;;;;;;4999096;28;20441;-85
2023/05/19 11:34:44;;;;;;;8.20;3.50;;;31.00;29.20;;;;;;5000679;28;20468;-80
2023/05/19 11:37:12;;;;;;;10.53;3.73;;;31.10;29.30;;;;;;5000406;28;20473;-81
2023/05/19 11:39:40;;;;;;;8.90;4.50;;;31.40;29.20;;;;;;4995652;28;20445;-80
2023/05/19 11:42:09;;;;;;;5.40;4.30;;;31.60;29.70;;;;;;4994948;28;20584;-80
2023/05/19 11:44:39;;;;;;;4.00;3.50;;;31.80;29.70;;;;;;4996307;28;20485;-79
2023/05/19 11:47:07;;;;;;;3.90;3.10;;;31.70;28.90;;;;;;4995487;28;20473;-82
2023/05/19 11:49:37;;;;;;;3.17;2.33;;;31.60;28.40;;;;;;4995782;28;20453;-80
2023/05/19 11:52:05;;;;;;;2.70;2.20;;;31.80;28.40;;;;;;4996196;28;20437;-80
2023/05/19 11:54:35;;;;;;;1.80;1.70;;;32.00;27.60;;;;;;4993843;28;20423;-80
2023/05/19 11:57:03;;;;;;;2.20;2.00;;;32.30;26.70;;;;;;4994431;28;20415;-80
2023/05/19 11:59:32;;;;;;;1.80;1.70;;;32.30;26.80;;;;;;4992756;28;20434;-80
2023/05/19 12:02:03;;;;;;;7.80;1.77;;;32.50;27.20;;;;;;4988747;28;20449;-80
2023/05/19 12:04:31;;;;;;;2.23;1.90;;;32.50;26.50;;;;;;4995671;28;20492;-80
2023/05/19 12:07:01;;;;;;;3.90;1.77;;;32.70;26.50;;;;;;4994420;28;20508;-79
2023/05/19 12:09:29;;;;;;;1.87;1.60;;;32.90;26.50;;;;;;4991709;28;20524;-79
2023/05/19 12:11:57;;;;;;;3.27;1.97;;;33.10;26.60;;;;;;4987676;28;21011;-79
2023/05/19 12:14:26;;;;;;;2.70;1.70;;;33.40;26.40;;;;;;4994306;28;20469;-80
2023/05/19 12:16:54;;;;;;;5.07;3.03;;;33.50;26.10;;;;;;4991011;28;20453;-82
2023/05/19 12:19:24;;;;;;;4.97;2.60;;;33.70;26.70;;;;;;4997855;28;20988;-85
2023/05/19 12:21:52;;;;;;;5.90;3.60;;;33.60;26.30;;;;;;4996193;28;20461;-82
2023/05/19 12:24:22;;;;;;;4.90;3.80;;;33.50;26.10;;;;;;4994004;28;20502;-84
2023/05/19 12:26:50;;;;;;;4.13;3.83;;;33.30;26.20;;;;;;4999416;28;20568;-83
2023/05/19 12:29:18;;;;;;;4.80;4.10;;;33.40;26.50;;;;;;4997260;28;20449;-83
2023/05/19 12:31:46;;;;;;;5.60;4.20;;;33.60;26.70;;;;;;4994083;28;20484;-83
2023/05/19 12:34:15;;;;;;;5.27;3.60;;;33.70;26.10;;;;;;4991676;28;20469;-83
2023/05/19 12:36:43;;;;;;;7.27;3.73;;;33.70;26.10;;;;;;4996480;28;20472;-85
2023/05/19 12:39:11;;;;;;;5.83;3.97;;;33.70;26.30;;;;;;4990129;28;20771;-84
2023/05/19 12:41:41;;;;;;;5.67;4.30;;;33.70;26.30;;;;;;4997213;28;20515;-85
2023/05/19 12:44:15;;;;;;;12.13;5.00;;;34.00;26.00;;;;;;4998227;28;20469;-84
2023/05/19 12:46:43;;;;;;;8.80;4.53;;;33.60;25.80;;;;;;4989694;28;20453;-84
2023/05/19 12:49:12;;;;;;;6.63;3.80;;;33.40;25.80;;;;;;4993949;28;20481;-85
2023/05/19 12:51:40;;;;;;;5.00;4.50;;;33.30;25.30;;;;;;4997449;28;20985;-86
2023/05/19 12:54:09;;;;;;;8.33;5.30;;;33.10;25.00;;;;;;4994408;28;20469;-84
2023/05/19 12:56:37;;;;;;;6.70;4.67;;;32.90;24.60;;;;;;4987747;28;20980;-85
2023/05/19 12:59:06;;;;;;;5.70;3.60;;;32.70;24.20;;;;;;4994770;28;20473;-84